sensor_id;sensor_type;location;lat;lon;timestamp;P1;durP1;ratioP1;P2;durP2;ratioP2
23952;SDS011;12163;49.316;6.092;2023-03-01T00:00:03;10.15;;;5.88;;
23952;SDS011;12163;49.316;6.092;2023-03-01T00:02:30;9.70;;;5.88;;
23952;SDS011;12163;49.316;6.092;2023-03-01T00:04:57;12.15;;;5.97;;
23952;SDS011;12163;49.316;6.092;2023-03-01T00:07:23;10.05;;;6.55;;
23952;SDS011;12163;49.316;6.092;2023-03-01T00:09:50;10.77;;;5.88;;
23952;SDS011;12163;49.316;6.092;2023-03-01T00:12:17;10.40;;;6.22;;
23952;SDS011;12163;49.316;6.092;2023-03-01T00:14:43;11.23;;;5.90;;
23952;SDS011;12163;49.316;6.092;2023-03-01T00:17:10;10.57;;;6.15;;
23952;SDS011;12163;49.316;6.092;2023-03-01T00:19:36;12.15;;;6.15;;
23952;SDS011;12163;49.316;6.092;2023-03-01T00:22:03;11.10;;;6.05;;
23952;SDS011;12163;49.316;6.092;2023-03-01T00:24:30;11.10;;;5.78;;
23952;SDS011;12163;49.316;6.092;2023-03-01T00:26:56;14.23;;;6.20;;
23952;SDS011;12163;49.316;6.092;2023-03-01T00:29:23;9.75;;;5.65;;
23952;SDS011;12163;49.316;6.092;2023-03-01T00:31:50;11.25;;;5.78;;
23952;SDS011;12163;49.316;6.092;2023-03-01T00:34:17;11.43;;;5.68;;
23952;SDS011;12163;49.316;6.092;2023-03-01T00:36:44;10.48;;;6.25;;
23952;SDS011;12163;49.316;6.092;2023-03-01T00:39:12;9.88;;;5.93;;
23952;SDS011;12163;49.316;6.092;2023-03-01T00:41:40;12.52;;;6.68;;
23952;SDS011;12163;49.316;6.092;2023-03-01T00:44:08;11.75;;;5.60;;
23952;SDS011;12163;49.316;6.092;2023-03-01T00:46:35;10.52;;;5.90;;
23952;SDS011;12163;49.316;6.092;2023-03-01T00:49:02;13.68;;;5.72;;
23952;SDS011;12163;49.316;6.092;2023-03-01T00:51:30;11.85;;;5.82;;
23952;SDS011;12163;49.316;6.092;2023-03-01T00:53:59;9.32;;;5.70;;
23952;SDS011;12163;49.316;6.092;2023-03-01T00:56:27;12.38;;;6.22;;
23952;SDS011;12163;49.316;6.092;2023-03-01T00:58:56;9.70;;;5.63;;
23952;SDS011;12163;49.316;6.092;2023-03-01T01:01:25;11.68;;;5.90;;
23952;SDS011;12163;49.316;6.092;2023-03-01T01:03:57;12.85;;;5.60;;
23952;SDS011;12163;49.316;6.092;2023-03-01T01:06:27;8.90;;;5.80;;
23952;SDS011;12163;49.316;6.092;2023-03-01T01:08:56;11.45;;;5.78;;
23952;SDS011;12163;49.316;6.092;2023-03-01T01:11:23;9.43;;;5.68;;
23952;SDS011;12163;49.316;6.092;2023-03-01T01:13:51;13.88;;;6.45;;
23952;SDS011;12163;49.316;6.092;2023-03-01T01:16:18;11.35;;;5.55;;
23952;SDS011;12163;49.316;6.092;2023-03-01T01:18:46;12.50;;;6.20;;
23952;SDS011;12163;49.316;6.092;2023-03-01T01:21:14;10.93;;;6.38;;
23952;SDS011;12163;49.316;6.092;2023-03-01T01:23:42;9.30;;;6.15;;
23952;SDS011;12163;49.316;6.092;2023-03-01T01:26:15;9.57;;;5.82;;
23952;SDS011;12163;49.316;6.092;2023-03-01T01:28:43;10.85;;;5.82;;
23952;SDS011;12163;49.316;6.092;2023-03-01T01:31:09;11.02;;;6.25;;
23952;SDS011;12163;49.316;6.092;2023-03-01T01:33:36;11.73;;;6.22;;
23952;SDS011;12163;49.316;6.092;2023-03-01T01:36:07;10.90;;;6.00;;
23952;SDS011;12163;49.316;6.092;2023-03-01T01:38:34;10.30;;;6.10;;
23952;SDS011;12163;49.316;6.092;2023-03-01T01:41:03;10.52;;;6.35;;
23952;SDS011;12163;49.316;6.092;2023-03-01T01:43:33;13.40;;;7.38;;
23952;SDS011;12163;49.316;6.092;2023-03-01T01:49:03;11.77;;;6.35;;
23952;SDS011;12163;49.316;6.092;2023-03-01T01:51:37;13.27;;;6.53;;
23952;SDS011;12163;49.316;6.092;2023-03-01T01:54:12;14.57;;;6.65;;
23952;SDS011;12163;49.316;6.092;2023-03-01T01:56:46;11.02;;;6.97;;
23952;SDS011;12163;49.316;6.092;2023-03-01T01:59:17;12.27;;;6.63;;
23952;SDS011;12163;49.316;6.092;2023-03-01T02:01:44;10.57;;;6.63;;
23952;SDS011;12163;49.316;6.092;2023-03-01T02:04:10;10.15;;;6.05;;
23952;SDS011;12163;49.316;6.092;2023-03-01T02:06:38;11.07;;;6.53;;
23952;SDS011;12163;49.316;6.092;2023-03-01T02:09:10;11.25;;;6.25;;
23952;SDS011;12163;49.316;6.092;2023-03-01T02:11:39;9.25;;;6.30;;
23952;SDS011;12163;49.316;6.092;2023-03-01T02:14:07;10.48;;;6.72;;
23952;SDS011;12163;49.316;6.092;2023-03-01T02:16:33;15.27;;;6.35;;
23952;SDS011;12163;49.316;6.092;2023-03-01T02:19:01;12.15;;;6.32;;
23952;SDS011;12163;49.316;6.092;2023-03-01T02:21:37;9.85;;;5.78;;
23952;SDS011;12163;49.316;6.092;2023-03-01T02:24:10;12.15;;;6.80;;
23952;SDS011;12163;49.316;6.092;2023-03-01T02:26:51;12.40;;;6.45;;
23952;SDS011;12163;49.316;6.092;2023-03-01T02:29:21;9.80;;;6.25;;
23952;SDS011;12163;49.316;6.092;2023-03-01T02:31:49;9.77;;;5.88;;
23952;SDS011;12163;49.316;6.092;2023-03-01T02:34:21;13.68;;;6.57;;
23952;SDS011;12163;49.316;6.092;2023-03-01T02:36:55;10.65;;;6.47;;
23952;SDS011;12163;49.316;6.092;2023-03-01T02:39:27;10.80;;;6.57;;
23952;SDS011;12163;49.316;6.092;2023-03-01T02:41:58;10.90;;;6.50;;
23952;SDS011;12163;49.316;6.092;2023-03-01T02:44:26;11.32;;;6.60;;
23952;SDS011;12163;49.316;6.092;2023-03-01T02:46:53;13.63;;;7.07;;
23952;SDS011;12163;49.316;6.092;2023-03-01T02:51:59;12.77;;;7.00;;
23952;SDS011;12163;49.316;6.092;2023-03-01T02:57:23;12.20;;;6.78;;
23952;SDS011;12163;49.316;6.092;2023-03-01T02:59:54;12.35;;;6.68;;
23952;SDS011;12163;49.316;6.092;2023-03-01T03:02:27;12.63;;;6.57;;
23952;SDS011;12163;49.316;6.092;2023-03-01T03:05:03;14.73;;;7.90;;
23952;SDS011;12163;49.316;6.092;2023-03-01T03:07:57;12.63;;;6.45;;
23952;SDS011;12163;49.316;6.092;2023-03-01T03:10:26;14.27;;;7.30;;
23952;SDS011;12163;49.316;6.092;2023-03-01T03:13:02;16.77;;;7.18;;
23952;SDS011;12163;49.316;6.092;2023-03-01T03:15:31;12.68;;;6.72;;
23952;SDS011;12163;49.316;6.092;2023-03-01T03:17:58;12.88;;;7.13;;
23952;SDS011;12163;49.316;6.092;2023-03-01T03:20:26;13.30;;;7.18;;
23952;SDS011;12163;49.316;6.092;2023-03-01T03:22:54;11.75;;;7.18;;
23952;SDS011;12163;49.316;6.092;2023-03-01T03:25:25;14.00;;;7.22;;
23952;SDS011;12163;49.316;6.092;2023-03-01T03:27:54;13.68;;;7.53;;
23952;SDS011;12163;49.316;6.092;2023-03-01T03:30:24;10.85;;;6.90;;
23952;SDS011;12163;49.316;6.092;2023-03-01T03:32:52;10.88;;;7.40;;
23952;SDS011;12163;49.316;6.092;2023-03-01T03:35:20;11.98;;;7.35;;
23952;SDS011;12163;49.316;6.092;2023-03-01T03:37:51;11.73;;;7.25;;
23952;SDS011;12163;49.316;6.092;2023-03-01T03:40:39;11.30;;;6.05;;
23952;SDS011;12163;49.316;6.092;2023-03-01T03:43:08;12.30;;;7.20;;
23952;SDS011;12163;49.316;6.092;2023-03-01T03:45:36;15.02;;;7.85;;
23952;SDS011;12163;49.316;6.092;2023-03-01T03:48:04;13.57;;;8.07;;
23952;SDS011;12163;49.316;6.092;2023-03-01T03:50:33;12.10;;;8.00;;
23952;SDS011;12163;49.316;6.092;2023-03-01T03:53:00;11.63;;;7.45;;
23952;SDS011;12163;49.316;6.092;2023-03-01T03:55:28;12.45;;;7.60;;
23952;SDS011;12163;49.316;6.092;2023-03-01T03:57:57;12.80;;;7.70;;
23952;SDS011;12163;49.316;6.092;2023-03-01T04:00:28;12.02;;;8.13;;
23952;SDS011;12163;49.316;6.092;2023-03-01T04:02:54;13.85;;;7.88;;
23952;SDS011;12163;49.316;6.092;2023-03-01T04:05:23;14.45;;;8.25;;
23952;SDS011;12163;49.316;6.092;2023-03-01T04:07:50;16.05;;;8.48;;
23952;SDS011;12163;49.316;6.092;2023-03-01T04:10:33;13.02;;;7.55;;
23952;SDS011;12163;49.316;6.092;2023-03-01T04:13:08;13.00;;;8.45;;
23952;SDS011;12163;49.316;6.092;2023-03-01T04:15:39;15.23;;;8.43;;
23952;SDS011;12163;49.316;6.092;2023-03-01T04:18:06;14.43;;;8.77;;
23952;SDS011;12163;49.316;6.092;2023-03-01T04:20:35;15.15;;;8.77;;
23952;SDS011;12163;49.316;6.092;2023-03-01T04:23:03;14.45;;;8.50;;
23952;SDS011;12163;49.316;6.092;2023-03-01T04:25:38;13.60;;;8.63;;
23952;SDS011;12163;49.316;6.092;2023-03-01T04:28:06;15.85;;;8.18;;
23952;SDS011;12163;49.316;6.092;2023-03-01T04:30:34;16.30;;;9.18;;
23952;SDS011;12163;49.316;6.092;2023-03-01T04:33:02;14.90;;;9.05;;
23952;SDS011;12163;49.316;6.092;2023-03-01T04:35:30;18.05;;;8.85;;
23952;SDS011;12163;49.316;6.092;2023-03-01T04:37:58;15.95;;;8.98;;
23952;SDS011;12163;49.316;6.092;2023-03-01T04:40:24;14.40;;;9.63;;
23952;SDS011;12163;49.316;6.092;2023-03-01T04:42:51;18.38;;;9.05;;
23952;SDS011;12163;49.316;6.092;2023-03-01T04:45:18;14.40;;;9.23;;
23952;SDS011;12163;49.316;6.092;2023-03-01T04:47:45;15.88;;;9.32;;
23952;SDS011;12163;49.316;6.092;2023-03-01T04:50:14;14.40;;;8.90;;
23952;SDS011;12163;49.316;6.092;2023-03-01T04:52:43;15.20;;;9.15;;
23952;SDS011;12163;49.316;6.092;2023-03-01T04:55:10;14.95;;;9.32;;
23952;SDS011;12163;49.316;6.092;2023-03-01T04:57:37;16.48;;;9.43;;
23952;SDS011;12163;49.316;6.092;2023-03-01T05:00:04;14.52;;;9.85;;
23952;SDS011;12163;49.316;6.092;2023-03-01T05:02:47;15.10;;;9.00;;
23952;SDS011;12163;49.316;6.092;2023-03-01T05:05:28;16.17;;;9.40;;
23952;SDS011;12163;49.316;6.092;2023-03-01T05:07:58;15.48;;;10.10;;
23952;SDS011;12163;49.316;6.092;2023-03-01T05:10:27;18.13;;;10.93;;
23952;SDS011;12163;49.316;6.092;2023-03-01T05:12:56;17.00;;;10.20;;
23952;SDS011;12163;49.316;6.092;2023-03-01T05:15:26;15.75;;;9.63;;
23952;SDS011;12163;49.316;6.092;2023-03-01T05:17:54;21.13;;;10.43;;
23952;SDS011;12163;49.316;6.092;2023-03-01T05:20:25;14.98;;;9.68;;
23952;SDS011;12163;49.316;6.092;2023-03-01T05:22:53;20.60;;;10.93;;
23952;SDS011;12163;49.316;6.092;2023-03-01T05:25:21;18.02;;;10.82;;
23952;SDS011;12163;49.316;6.092;2023-03-01T05:27:48;15.77;;;10.10;;
23952;SDS011;12163;49.316;6.092;2023-03-01T05:30:15;19.90;;;10.55;;
23952;SDS011;12163;49.316;6.092;2023-03-01T05:32:43;18.98;;;11.60;;
23952;SDS011;12163;49.316;6.092;2023-03-01T05:35:15;17.20;;;11.38;;
23952;SDS011;12163;49.316;6.092;2023-03-01T05:37:45;15.73;;;9.98;;
23952;SDS011;12163;49.316;6.092;2023-03-01T05:40:15;19.08;;;10.60;;
23952;SDS011;12163;49.316;6.092;2023-03-01T05:42:48;16.40;;;10.43;;
23952;SDS011;12163;49.316;6.092;2023-03-01T05:45:18;17.83;;;10.88;;
23952;SDS011;12163;49.316;6.092;2023-03-01T05:47:45;19.10;;;11.73;;
23952;SDS011;12163;49.316;6.092;2023-03-01T05:50:22;16.15;;;10.98;;
23952;SDS011;12163;49.316;6.092;2023-03-01T05:52:54;17.98;;;11.25;;
23952;SDS011;12163;49.316;6.092;2023-03-01T05:55:24;13.40;;;6.38;;
23952;SDS011;12163;49.316;6.092;2023-03-01T05:57:54;13.23;;;7.82;;
23952;SDS011;12163;49.316;6.092;2023-03-01T06:00:21;17.45;;;9.70;;
23952;SDS011;12163;49.316;6.092;2023-03-01T06:02:50;15.50;;;10.55;;
23952;SDS011;12163;49.316;6.092;2023-03-01T06:05:20;18.80;;;11.52;;
23952;SDS011;12163;49.316;6.092;2023-03-01T06:07:47;17.65;;;10.05;;
23952;SDS011;12163;49.316;6.092;2023-03-01T06:10:14;17.35;;;10.82;;
23952;SDS011;12163;49.316;6.092;2023-03-01T06:12:44;19.05;;;10.63;;
23952;SDS011;12163;49.316;6.092;2023-03-01T06:15:12;19.75;;;11.93;;
23952;SDS011;12163;49.316;6.092;2023-03-01T06:17:40;20.45;;;12.05;;
23952;SDS011;12163;49.316;6.092;2023-03-01T06:20:09;23.02;;;12.05;;
23952;SDS011;12163;49.316;6.092;2023-03-01T06:22:38;18.58;;;11.80;;
23952;SDS011;12163;49.316;6.092;2023-03-01T06:25:05;19.92;;;11.25;;
23952;SDS011;12163;49.316;6.092;2023-03-01T06:27:32;20.63;;;12.15;;
23952;SDS011;12163;49.316;6.092;2023-03-01T06:29:59;19.42;;;11.85;;
23952;SDS011;12163;49.316;6.092;2023-03-01T06:32:26;18.05;;;11.95;;
23952;SDS011;12163;49.316;6.092;2023-03-01T06:34:52;18.55;;;12.65;;
23952;SDS011;12163;49.316;6.092;2023-03-01T06:37:19;14.10;;;7.82;;
23952;SDS011;12163;49.316;6.092;2023-03-01T06:39:46;20.08;;;11.32;;
23952;SDS011;12163;49.316;6.092;2023-03-01T06:42:12;24.05;;;11.85;;
23952;SDS011;12163;49.316;6.092;2023-03-01T06:44:39;20.38;;;11.93;;
23952;SDS011;12163;49.316;6.092;2023-03-01T06:47:05;18.25;;;11.02;;
23952;SDS011;12163;49.316;6.092;2023-03-01T06:49:32;17.63;;;10.13;;
23952;SDS011;12163;49.316;6.092;2023-03-01T06:51:58;20.45;;;12.30;;
23952;SDS011;12163;49.316;6.092;2023-03-01T06:54:25;20.33;;;12.77;;
23952;SDS011;12163;49.316;6.092;2023-03-01T06:56:51;20.15;;;12.07;;
23952;SDS011;12163;49.316;6.092;2023-03-01T06:59:18;21.58;;;12.68;;
23952;SDS011;12163;49.316;6.092;2023-03-01T07:01:45;21.08;;;12.90;;
23952;SDS011;12163;49.316;6.092;2023-03-01T07:04:12;22.50;;;12.88;;
23952;SDS011;12163;49.316;6.092;2023-03-01T07:06:39;23.60;;;13.13;;
23952;SDS011;12163;49.316;6.092;2023-03-01T07:09:06;19.80;;;12.45;;
23952;SDS011;12163;49.316;6.092;2023-03-01T07:11:32;22.83;;;12.93;;
23952;SDS011;12163;49.316;6.092;2023-03-01T07:13:59;22.40;;;12.48;;
23952;SDS011;12163;49.316;6.092;2023-03-01T07:16:26;21.20;;;12.57;;
23952;SDS011;12163;49.316;6.092;2023-03-01T07:18:53;22.83;;;13.38;;
23952;SDS011;12163;49.316;6.092;2023-03-01T07:21:20;21.42;;;13.65;;
23952;SDS011;12163;49.316;6.092;2023-03-01T07:23:47;21.50;;;13.73;;
23952;SDS011;12163;49.316;6.092;2023-03-01T07:26:14;21.58;;;13.50;;
23952;SDS011;12163;49.316;6.092;2023-03-01T07:28:41;20.88;;;13.05;;
23952;SDS011;12163;49.316;6.092;2023-03-01T07:31:07;20.42;;;12.82;;
23952;SDS011;12163;49.316;6.092;2023-03-01T07:33:34;21.13;;;12.73;;
23952;SDS011;12163;49.316;6.092;2023-03-01T07:36:01;22.88;;;13.18;;
23952;SDS011;12163;49.316;6.092;2023-03-01T07:38:29;26.95;;;14.30;;
23952;SDS011;12163;49.316;6.092;2023-03-01T07:41:00;20.27;;;13.20;;
23952;SDS011;12163;49.316;6.092;2023-03-01T07:43:28;23.63;;;13.80;;
23952;SDS011;12163;49.316;6.092;2023-03-01T07:45:59;23.02;;;13.65;;
23952;SDS011;12163;49.316;6.092;2023-03-01T07:48:30;32.38;;;13.57;;
23952;SDS011;12163;49.316;6.092;2023-03-01T07:50:58;20.40;;;13.18;;
23952;SDS011;12163;49.316;6.092;2023-03-01T07:53:25;24.65;;;13.93;;
23952;SDS011;12163;49.316;6.092;2023-03-01T07:58:36;21.40;;;13.73;;
23952;SDS011;12163;49.316;6.092;2023-03-01T08:01:05;21.27;;;13.13;;
23952;SDS011;12163;49.316;6.092;2023-03-01T08:03:33;28.05;;;13.52;;
23952;SDS011;12163;49.316;6.092;2023-03-01T08:06:04;21.27;;;13.30;;
23952;SDS011;12163;49.316;6.092;2023-03-01T08:08:33;21.63;;;13.45;;
23952;SDS011;12163;49.316;6.092;2023-03-01T08:11:01;23.48;;;13.80;;
23952;SDS011;12163;49.316;6.092;2023-03-01T08:13:29;24.13;;;13.18;;
23952;SDS011;12163;49.316;6.092;2023-03-01T08:16:00;22.80;;;13.25;;
23952;SDS011;12163;49.316;6.092;2023-03-01T08:18:28;18.92;;;12.93;;
23952;SDS011;12163;49.316;6.092;2023-03-01T08:20:55;22.50;;;13.80;;
23952;SDS011;12163;49.316;6.092;2023-03-01T08:23:22;21.33;;;13.43;;
23952;SDS011;12163;49.316;6.092;2023-03-01T08:25:48;27.48;;;14.20;;
23952;SDS011;12163;49.316;6.092;2023-03-01T08:28:15;25.33;;;13.07;;
23952;SDS011;12163;49.316;6.092;2023-03-01T08:30:41;24.45;;;13.70;;
23952;SDS011;12163;49.316;6.092;2023-03-01T08:33:08;29.15;;;13.27;;
23952;SDS011;12163;49.316;6.092;2023-03-01T08:35:35;22.30;;;13.90;;
23952;SDS011;12163;49.316;6.092;2023-03-01T08:38:01;22.52;;;14.10;;
23952;SDS011;12163;49.316;6.092;2023-03-01T08:40:28;21.70;;;13.63;;
23952;SDS011;12163;49.316;6.092;2023-03-01T08:42:54;28.42;;;14.73;;
23952;SDS011;12163;49.316;6.092;2023-03-01T08:45:21;19.08;;;13.38;;
23952;SDS011;12163;49.316;6.092;2023-03-01T08:47:50;22.92;;;13.70;;
23952;SDS011;12163;49.316;6.092;2023-03-01T08:50:18;25.00;;;13.68;;
23952;SDS011;12163;49.316;6.092;2023-03-01T08:52:45;22.40;;;13.73;;
23952;SDS011;12163;49.316;6.092;2023-03-01T08:55:12;21.65;;;14.70;;
23952;SDS011;12163;49.316;6.092;2023-03-01T08:57:39;23.27;;;13.73;;
23952;SDS011;12163;49.316;6.092;2023-03-01T09:00:06;23.85;;;13.40;;
23952;SDS011;12163;49.316;6.092;2023-03-01T09:02:34;23.13;;;14.32;;
23952;SDS011;12163;49.316;6.092;2023-03-01T09:05:01;20.63;;;13.20;;
23952;SDS011;12163;49.316;6.092;2023-03-01T09:07:28;21.95;;;13.75;;
23952;SDS011;12163;49.316;6.092;2023-03-01T09:09:55;24.10;;;14.57;;
23952;SDS011;12163;49.316;6.092;2023-03-01T09:12:21;24.55;;;13.23;;
23952;SDS011;12163;49.316;6.092;2023-03-01T09:14:48;27.65;;;13.75;;
23952;SDS011;12163;49.316;6.092;2023-03-01T09:17:15;26.38;;;14.73;;
23952;SDS011;12163;49.316;6.092;2023-03-01T09:19:41;22.45;;;14.63;;
23952;SDS011;12163;49.316;6.092;2023-03-01T09:22:08;24.92;;;14.65;;
23952;SDS011;12163;49.316;6.092;2023-03-01T09:24:34;22.55;;;15.10;;
23952;SDS011;12163;49.316;6.092;2023-03-01T09:27:01;23.35;;;14.25;;
23952;SDS011;12163;49.316;6.092;2023-03-01T09:29:29;23.77;;;14.27;;
23952;SDS011;12163;49.316;6.092;2023-03-01T09:31:55;22.25;;;14.02;;
23952;SDS011;12163;49.316;6.092;2023-03-01T09:34:22;24.70;;;15.15;;
23952;SDS011;12163;49.316;6.092;2023-03-01T09:36:50;27.48;;;14.43;;
23952;SDS011;12163;49.316;6.092;2023-03-01T09:39:17;23.23;;;15.05;;
23952;SDS011;12163;49.316;6.092;2023-03-01T09:42:00;21.33;;;14.38;;
23952;SDS011;12163;49.316;6.092;2023-03-01T09:47:09;22.58;;;15.07;;
23952;SDS011;12163;49.316;6.092;2023-03-01T09:49:42;22.67;;;14.65;;
23952;SDS011;12163;49.316;6.092;2023-03-01T09:52:20;24.10;;;15.00;;
23952;SDS011;12163;49.316;6.092;2023-03-01T09:54:55;28.67;;;15.27;;
23952;SDS011;12163;49.316;6.092;2023-03-01T10:00:09;27.13;;;15.38;;
23952;SDS011;12163;49.316;6.092;2023-03-01T10:02:45;24.83;;;15.10;;
23952;SDS011;12163;49.316;6.092;2023-03-01T10:10:57;24.98;;;14.95;;
23952;SDS011;12163;49.316;6.092;2023-03-01T10:13:37;25.27;;;14.95;;
23952;SDS011;12163;49.316;6.092;2023-03-01T10:16:16;24.98;;;15.02;;
23952;SDS011;12163;49.316;6.092;2023-03-01T10:18:52;22.67;;;14.77;;
23952;SDS011;12163;49.316;6.092;2023-03-01T10:21:25;24.63;;;15.68;;
23952;SDS011;12163;49.316;6.092;2023-03-01T10:23:55;23.95;;;15.00;;
23952;SDS011;12163;49.316;6.092;2023-03-01T10:29:04;24.30;;;15.10;;
23952;SDS011;12163;49.316;6.092;2023-03-01T10:34:20;26.55;;;15.80;;
23952;SDS011;12163;49.316;6.092;2023-03-01T10:37:00;25.30;;;15.65;;
23952;SDS011;12163;49.316;6.092;2023-03-01T10:39:35;24.00;;;14.85;;
23952;SDS011;12163;49.316;6.092;2023-03-01T10:42:03;26.40;;;15.70;;
23952;SDS011;12163;49.316;6.092;2023-03-01T10:47:01;21.92;;;14.88;;
23952;SDS011;12163;49.316;6.092;2023-03-01T10:49:27;25.55;;;15.45;;
23952;SDS011;12163;49.316;6.092;2023-03-01T10:51:54;24.70;;;15.57;;
23952;SDS011;12163;49.316;6.092;2023-03-01T10:54:25;23.40;;;15.43;;
23952;SDS011;12163;49.316;6.092;2023-03-01T10:56:58;23.35;;;14.70;;
23952;SDS011;12163;49.316;6.092;2023-03-01T10:59:28;24.33;;;14.85;;
23952;SDS011;12163;49.316;6.092;2023-03-01T11:05:32;29.75;;;15.13;;
23952;SDS011;12163;49.316;6.092;2023-03-01T11:10:18;23.75;;;15.15;;
23952;SDS011;12163;49.316;6.092;2023-03-01T11:12:47;26.15;;;16.13;;
23952;SDS011;12163;49.316;6.092;2023-03-01T11:15:24;25.45;;;15.43;;
23952;SDS011;12163;49.316;6.092;2023-03-01T11:17:53;21.42;;;14.48;;
23952;SDS011;12163;49.316;6.092;2023-03-01T11:20:38;24.92;;;15.05;;
23952;SDS011;12163;49.316;6.092;2023-03-01T11:23:09;22.25;;;14.90;;
23952;SDS011;12163;49.316;6.092;2023-03-01T11:25:42;25.58;;;15.40;;
23952;SDS011;12163;49.316;6.092;2023-03-01T11:28:14;22.95;;;15.00;;
23952;SDS011;12163;49.316;6.092;2023-03-01T11:39:03;26.10;;;15.57;;
23952;SDS011;12163;49.316;6.092;2023-03-01T11:41:50;24.25;;;15.75;;
23952;SDS011;12163;49.316;6.092;2023-03-01T11:44:38;28.92;;;15.75;;
23952;SDS011;12163;49.316;6.092;2023-03-01T12:01:11;25.02;;;15.05;;
23952;SDS011;12163;49.316;6.092;2023-03-01T12:19:42;22.48;;;14.52;;
23952;SDS011;12163;49.316;6.092;2023-03-01T12:22:34;23.30;;;14.65;;
23952;SDS011;12163;49.316;6.092;2023-03-01T12:30:34;88.03;;;39.95;;
23952;SDS011;12163;49.316;6.092;2023-03-01T12:36:40;21.63;;;14.73;;
23952;SDS011;12163;49.316;6.092;2023-03-01T12:38:42;20.83;;;14.45;;
23952;SDS011;12163;49.316;6.092;2023-03-01T12:49:44;25.17;;;15.20;;
23952;SDS011;12163;49.316;6.092;2023-03-01T12:52:26;35.13;;;14.90;;
23952;SDS011;12163;49.316;6.092;2023-03-01T12:55:02;20.38;;;14.45;;
23952;SDS011;12163;49.316;6.092;2023-03-01T12:58:01;25.50;;;15.63;;
23952;SDS011;12163;49.316;6.092;2023-03-01T13:03:56;22.25;;;14.48;;
23952;SDS011;12163;49.316;6.092;2023-03-01T13:09:34;24.23;;;14.90;;
23952;SDS011;12163;49.316;6.092;2023-03-01T13:17:49;32.70;;;18.17;;
23952;SDS011;12163;49.316;6.092;2023-03-01T13:20:19;23.83;;;13.93;;
23952;SDS011;12163;49.316;6.092;2023-03-01T13:22:49;20.08;;;12.98;;
23952;SDS011;12163;49.316;6.092;2023-03-01T13:25:32;21.92;;;13.63;;
23952;SDS011;12163;49.316;6.092;2023-03-01T13:33:50;19.58;;;13.70;;
23952;SDS011;12163;49.316;6.092;2023-03-01T13:52:40;23.08;;;13.95;;
23952;SDS011;12163;49.316;6.092;2023-03-01T13:57:41;23.85;;;13.43;;
23952;SDS011;12163;49.316;6.092;2023-03-01T14:00:24;26.65;;;14.32;;
23952;SDS011;12163;49.316;6.092;2023-03-01T14:03:00;20.67;;;14.13;;
23952;SDS011;12163;49.316;6.092;2023-03-01T14:05:42;20.25;;;14.23;;
23952;SDS011;12163;49.316;6.092;2023-03-01T14:08:39;21.10;;;13.10;;
23952;SDS011;12163;49.316;6.092;2023-03-01T14:16:49;24.88;;;14.48;;
23952;SDS011;12163;49.316;6.092;2023-03-01T14:19:43;18.58;;;13.00;;
23952;SDS011;12163;49.316;6.092;2023-03-01T14:25:01;18.33;;;12.30;;
23952;SDS011;12163;49.316;6.092;2023-03-01T14:27:38;20.13;;;13.85;;
23952;SDS011;12163;49.316;6.092;2023-03-01T14:30:13;35.05;;;13.45;;
23952;SDS011;12163;49.316;6.092;2023-03-01T14:32:51;26.95;;;13.35;;
23952;SDS011;12163;49.316;6.092;2023-03-01T14:35:29;20.05;;;13.10;;
23952;SDS011;12163;49.316;6.092;2023-03-01T14:37:57;22.00;;;12.40;;
23952;SDS011;12163;49.316;6.092;2023-03-01T14:40:26;22.30;;;13.07;;
23952;SDS011;12163;49.316;6.092;2023-03-01T14:42:53;19.88;;;13.23;;
23952;SDS011;12163;49.316;6.092;2023-03-01T14:45:25;19.70;;;12.98;;
23952;SDS011;12163;49.316;6.092;2023-03-01T14:47:54;26.00;;;13.00;;
23952;SDS011;12163;49.316;6.092;2023-03-01T14:50:29;18.92;;;13.18;;
23952;SDS011;12163;49.316;6.092;2023-03-01T14:53:02;19.60;;;13.07;;
23952;SDS011;12163;49.316;6.092;2023-03-01T14:55:37;18.70;;;12.98;;
23952;SDS011;12163;49.316;6.092;2023-03-01T14:58:15;20.20;;;12.68;;
23952;SDS011;12163;49.316;6.092;2023-03-01T15:00:50;19.90;;;12.85;;
23952;SDS011;12163;49.316;6.092;2023-03-01T15:03:23;19.52;;;12.70;;
23952;SDS011;12163;49.316;6.092;2023-03-01T15:05:50;18.67;;;13.40;;
23952;SDS011;12163;49.316;6.092;2023-03-01T15:08:20;20.17;;;12.48;;
23952;SDS011;12163;49.316;6.092;2023-03-01T15:13:29;18.08;;;12.38;;
23952;SDS011;12163;49.316;6.092;2023-03-01T15:16:13;17.77;;;12.30;;
23952;SDS011;12163;49.316;6.092;2023-03-01T15:18:48;28.33;;;12.85;;
23952;SDS011;12163;49.316;6.092;2023-03-01T15:21:22;25.27;;;12.65;;
23952;SDS011;12163;49.316;6.092;2023-03-01T15:24:02;18.65;;;12.38;;
23952;SDS011;12163;49.316;6.092;2023-03-01T15:26:44;20.45;;;12.32;;
23952;SDS011;12163;49.316;6.092;2023-03-01T15:29:33;18.45;;;12.55;;
23952;SDS011;12163;49.316;6.092;2023-03-01T15:32:22;21.08;;;13.18;;
23952;SDS011;12163;49.316;6.092;2023-03-01T15:34:50;15.90;;;12.13;;
23952;SDS011;12163;49.316;6.092;2023-03-01T15:40:18;17.85;;;11.38;;
23952;SDS011;12163;49.316;6.092;2023-03-01T15:42:58;18.88;;;12.00;;
23952;SDS011;12163;49.316;6.092;2023-03-01T15:45:26;18.92;;;12.25;;
23952;SDS011;12163;49.316;6.092;2023-03-01T15:47:55;24.77;;;12.38;;
23952;SDS011;12163;49.316;6.092;2023-03-01T15:50:34;16.10;;;11.30;;
23952;SDS011;12163;49.316;6.092;2023-03-01T15:53:08;18.05;;;12.15;;
23952;SDS011;12163;49.316;6.092;2023-03-01T15:55:38;17.42;;;12.32;;
23952;SDS011;12163;49.316;6.092;2023-03-01T15:58:15;17.35;;;11.75;;
23952;SDS011;12163;49.316;6.092;2023-03-01T16:00:48;17.80;;;12.32;;
23952;SDS011;12163;49.316;6.092;2023-03-01T16:03:27;23.50;;;11.88;;
23952;SDS011;12163;49.316;6.092;2023-03-01T16:05:54;21.38;;;12.05;;
23952;SDS011;12163;49.316;6.092;2023-03-01T16:08:21;17.42;;;12.52;;
23952;SDS011;12163;49.316;6.092;2023-03-01T16:10:48;17.85;;;12.07;;
23952;SDS011;12163;49.316;6.092;2023-03-01T16:13:17;19.40;;;12.73;;
23952;SDS011;12163;49.316;6.092;2023-03-01T16:15:44;21.05;;;13.07;;
23952;SDS011;12163;49.316;6.092;2023-03-01T16:18:10;26.00;;;15.45;;
23952;SDS011;12163;49.316;6.092;2023-03-01T16:20:38;21.23;;;14.43;;
23952;SDS011;12163;49.316;6.092;2023-03-01T16:23:06;30.13;;;16.48;;
23952;SDS011;12163;49.316;6.092;2023-03-01T16:25:34;30.77;;;19.10;;
23952;SDS011;12163;49.316;6.092;2023-03-01T16:28:02;45.35;;;23.20;;
23952;SDS011;12163;49.316;6.092;2023-03-01T16:30:35;28.67;;;16.60;;
23952;SDS011;12163;49.316;6.092;2023-03-01T16:33:02;24.17;;;14.15;;
23952;SDS011;12163;49.316;6.092;2023-03-01T16:35:50;21.30;;;13.70;;
23952;SDS011;12163;49.316;6.092;2023-03-01T16:38:16;21.23;;;13.77;;
23952;SDS011;12163;49.316;6.092;2023-03-01T16:40:46;22.27;;;12.88;;
23952;SDS011;12163;49.316;6.092;2023-03-01T16:43:13;24.55;;;14.75;;
23952;SDS011;12163;49.316;6.092;2023-03-01T16:45:40;23.40;;;12.25;;
23952;SDS011;12163;49.316;6.092;2023-03-01T16:48:10;19.02;;;12.43;;
23952;SDS011;12163;49.316;6.092;2023-03-01T16:50:38;20.98;;;11.73;;
23952;SDS011;12163;49.316;6.092;2023-03-01T16:53:04;18.90;;;11.15;;
23952;SDS011;12163;49.316;6.092;2023-03-01T16:55:31;19.15;;;12.55;;
23952;SDS011;12163;49.316;6.092;2023-03-01T16:57:59;28.15;;;12.05;;
23952;SDS011;12163;49.316;6.092;2023-03-01T17:00:26;21.10;;;12.10;;
23952;SDS011;12163;49.316;6.092;2023-03-01T17:02:53;20.58;;;12.38;;
23952;SDS011;12163;49.316;6.092;2023-03-01T17:05:20;19.05;;;11.90;;